createdAt,value
2019-01-13T00:01:07.552Z,8.97
2019-01-13T00:11:16.265Z,9.83
2019-01-13T00:21:17.746Z,19.90
2019-01-13T00:31:19.532Z,9.83
2019-01-13T00:41:24.918Z,9.23
2019-01-13T00:51:26.391Z,7.37
2019-01-13T01:01:28.330Z,7.53
2019-01-13T01:11:29.801Z,5.00
2019-01-13T01:21:31.428Z,9.63
2019-01-13T01:31:33.133Z,6.53
2019-01-13T01:41:35.140Z,5.33
2019-01-13T01:51:36.744Z,5.93
2019-01-13T02:01:38.554Z,5.67
2019-01-13T02:11:40.157Z,7.73
2019-01-13T02:21:42.782Z,5.80
2019-01-13T02:31:44.485Z,3.70
2019-01-13T02:41:46.190Z,5.03
2019-01-13T02:51:47.874Z,3.93
2019-01-13T03:01:49.608Z,4.37
2019-01-13T03:11:51.201Z,4.33
2019-01-13T03:21:52.702Z,4.60
2019-01-13T03:31:54.510Z,7.73
2019-01-13T03:41:56.214Z,5.13
2019-01-13T03:51:57.687Z,7.33
2019-01-13T04:01:59.419Z,3.23
2019-01-13T04:12:00.918Z,3.90
2019-01-13T04:22:03.134Z,4.40
2019-01-13T04:32:05.248Z,6.87
2019-01-13T04:42:10.919Z,3.70
2019-01-13T04:52:12.548Z,7.77
2019-01-13T05:02:14.462Z,6.67
2019-01-13T05:12:15.969Z,9.43
2019-01-13T05:22:17.662Z,6.47
2019-01-13T05:32:19.289Z,8.80
2019-01-13T05:42:20.969Z,9.13
2019-01-13T05:52:22.465Z,14.53
2019-01-13T06:02:24.116Z,15.27
2019-01-13T06:12:25.679Z,13.83
2019-01-13T06:22:27.273Z,14.00
2019-01-13T06:32:28.983Z,12.70
2019-01-13T06:42:34.674Z,17.40
2019-01-13T06:52:36.174Z,24.03
2019-01-13T07:02:37.877Z,11.63
2019-01-13T07:12:39.483Z,13.60
2019-01-13T07:22:42.971Z,14.70
2019-01-13T07:32:45.141Z,9.77
2019-01-13T07:42:50.223Z,8.57
2019-01-13T07:52:51.835Z,19.07
2019-01-13T08:02:53.941Z,17.50
2019-01-13T08:12:55.645Z,20.30
2019-01-13T08:22:57.249Z,23.93
2019-01-13T08:32:58.951Z,19.40
2019-01-13T08:43:04.341Z,34.63
2019-01-13T08:53:05.946Z,25.97
2019-01-13T09:03:07.851Z,20.07
2019-01-13T09:13:09.579Z,10.37
2019-01-13T09:23:11.262Z,18.40
2019-01-13T09:33:13.170Z,19.63
2019-01-13T09:43:19.017Z,22.00
2019-01-13T09:53:20.572Z,21.93
2019-01-13T10:03:22.377Z,21.43
2019-01-13T10:13:23.883Z,17.17
2019-01-13T10:23:25.374Z,16.83
2019-01-13T10:33:27.186Z,14.83
2019-01-13T10:43:28.849Z,16.27
2019-01-13T10:53:30.328Z,13.13
2019-01-13T11:03:32.197Z,18.23
2019-01-13T11:13:34.126Z,11.77
2019-01-13T11:23:36.325Z,15.37
2019-01-13T11:33:38.033Z,18.70
2019-01-13T11:43:42.807Z,14.97
2019-01-13T11:53:44.306Z,13.10
2019-01-13T12:03:46.025Z,17.70
2019-01-13T12:13:47.973Z,17.70
2019-01-13T12:23:49.866Z,14.00
2019-01-13T12:33:51.737Z,11.27
2019-01-13T12:43:55.490Z,16.43
2019-01-13T12:53:57.089Z,9.23
2019-01-13T13:03:58.901Z,16.53
2019-01-13T13:14:00.398Z,16.43
2019-01-13T13:24:02.098Z,21.37
2019-01-13T13:34:04.008Z,14.30
2019-01-13T13:44:09.708Z,16.60
2019-01-13T13:54:12.334Z,11.83
2019-01-13T14:04:14.241Z,28.27
2019-01-13T14:14:15.945Z,32.47
2019-01-13T14:24:17.549Z,39.93
2019-01-13T14:34:22.683Z,23.37
2019-01-13T14:44:27.406Z,21.57
2019-01-13T14:54:31.670Z,20.30
2019-01-13T15:04:34.615Z,20.40
2019-01-13T15:14:36.518Z,23.00
2019-01-13T15:24:38.115Z,35.33
2019-01-13T15:34:39.921Z,26.73
2019-01-13T15:44:44.824Z,26.67
2019-01-13T15:54:46.413Z,27.20
2019-01-13T16:04:48.131Z,23.50
2019-01-13T16:14:49.718Z,19.23
2019-01-13T16:24:51.317Z,20.43
2019-01-13T16:34:53.116Z,23.57
2019-01-13T16:44:56.980Z,23.10
2019-01-13T16:54:58.480Z,30.73
2019-01-13T17:05:00.281Z,20.70
2019-01-13T17:15:05.882Z,21.07
2019-01-13T17:25:12.503Z,13.10
2019-01-13T17:35:14.925Z,14.30
2019-01-13T17:45:23.231Z,17.93
2019-01-13T17:55:27.538Z,17.83
2019-01-13T18:05:30.782Z,14.13
2019-01-13T18:15:32.481Z,18.03
2019-01-13T18:25:34.003Z,15.37
2019-01-13T18:35:35.892Z,22.30
2019-01-13T18:45:41.796Z,14.57
2019-01-13T18:55:43.398Z,14.40
2019-01-13T19:05:45.202Z,16.83
2019-01-13T19:15:51.723Z,11.60
2019-01-13T19:25:53.320Z,12.73
2019-01-13T19:35:55.134Z,10.80
2019-01-13T19:45:56.935Z,13.97
2019-01-13T19:55:58.444Z,15.30
2019-01-13T20:06:00.251Z,10.23
2019-01-13T20:16:01.843Z,12.83
2019-01-13T20:26:03.916Z,10.53
2019-01-13T20:36:05.663Z,12.33
2019-01-13T20:46:09.211Z,15.90
2019-01-13T20:56:10.812Z,16.57
2019-01-13T21:06:12.518Z,12.90
2019-01-13T21:16:14.014Z,12.80
2019-01-13T21:26:15.517Z,12.80
2019-01-13T21:36:17.322Z,7.37
2019-01-13T21:46:22.307Z,8.50
2019-01-13T21:56:24.004Z,9.53
2019-01-13T22:06:26.226Z,8.47
2019-01-13T22:16:27.831Z,6.37
2019-01-13T22:26:29.530Z,5.83
2019-01-13T22:36:32.533Z,7.07
2019-01-13T22:46:37.545Z,7.37
2019-01-13T22:56:39.062Z,7.40
2019-01-13T23:06:41.370Z,9.07
2019-01-13T23:16:43.017Z,6.10
2019-01-13T23:26:44.772Z,4.93
2019-01-13T23:36:46.581Z,8.17
2019-01-13T23:46:51.562Z,6.10
2019-01-13T23:56:53.369Z,4.17
